sensor_id;sensor_type;location;lat;lon;timestamp;P1;durP1;ratioP1;P2;durP2;ratioP2
11531;SDS011;5822;51.000;5.874;2023-05-10T00:00:46;16.30;;;15.40;;
11531;SDS011;5822;51.000;5.874;2023-05-10T00:03:12;17.47;;;16.47;;
11531;SDS011;5822;51.000;5.874;2023-05-10T00:05:38;17.75;;;16.75;;
11531;SDS011;5822;51.000;5.874;2023-05-10T00:08:03;17.17;;;16.17;;
11531;SDS011;5822;51.000;5.874;2023-05-10T00:10:29;17.38;;;16.38;;
11531;SDS011;5822;51.000;5.874;2023-05-10T00:12:55;17.13;;;16.13;;
11531;SDS011;5822;51.000;5.874;2023-05-10T00:15:20;18.20;;;17.10;;
11531;SDS011;5822;51.000;5.874;2023-05-10T00:17:46;17.40;;;16.40;;
11531;SDS011;5822;51.000;5.874;2023-05-10T00:20:12;17.35;;;16.35;;
11531;SDS011;5822;51.000;5.874;2023-05-10T00:22:37;16.98;;;16.08;;
11531;SDS011;5822;51.000;5.874;2023-05-10T00:25:03;16.97;;;16.07;;
11531;SDS011;5822;51.000;5.874;2023-05-10T00:27:29;17.45;;;16.45;;
11531;SDS011;5822;51.000;5.874;2023-05-10T00:29:55;17.60;;;16.60;;
11531;SDS011;5822;51.000;5.874;2023-05-10T00:32:21;16.90;;;16.00;;
11531;SDS011;5822;51.000;5.874;2023-05-10T00:34:46;16.73;;;15.83;;
11531;SDS011;5822;51.000;5.874;2023-05-10T00:37:12;16.88;;;15.88;;
11531;SDS011;5822;51.000;5.874;2023-05-10T00:39:37;16.50;;;15.60;;
11531;SDS011;5822;51.000;5.874;2023-05-10T00:42:03;16.23;;;15.33;;
11531;SDS011;5822;51.000;5.874;2023-05-10T00:44:29;16.80;;;15.90;;
11531;SDS011;5822;51.000;5.874;2023-05-10T00:46:56;16.85;;;15.95;;
11531;SDS011;5822;51.000;5.874;2023-05-10T00:49:23;16.80;;;15.90;;
11531;SDS011;5822;51.000;5.874;2023-05-10T00:51:48;17.27;;;16.27;;
11531;SDS011;5822;51.000;5.874;2023-05-10T00:54:17;18.00;;;17.00;;
11531;SDS011;5822;51.000;5.874;2023-05-10T00:56:43;18.05;;;16.95;;
11531;SDS011;5822;51.000;5.874;2023-05-10T00:59:14;17.80;;;16.80;;
11531;SDS011;5822;51.000;5.874;2023-05-10T01:01:41;18.08;;;16.98;;
11531;SDS011;5822;51.000;5.874;2023-05-10T01:04:07;17.65;;;16.65;;
11531;SDS011;5822;51.000;5.874;2023-05-10T01:06:35;17.80;;;16.80;;
11531;SDS011;5822;51.000;5.874;2023-05-10T01:09:00;17.80;;;16.70;;
11531;SDS011;5822;51.000;5.874;2023-05-10T01:11:27;17.83;;;16.83;;
11531;SDS011;5822;51.000;5.874;2023-05-10T01:13:55;18.50;;;17.40;;
11531;SDS011;5822;51.000;5.874;2023-05-10T01:16:22;18.35;;;17.25;;
11531;SDS011;5822;51.000;5.874;2023-05-10T01:18:49;17.85;;;16.85;;
11531;SDS011;5822;51.000;5.874;2023-05-10T01:43:24;18.48;;;17.38;;
11531;SDS011;5822;51.000;5.874;2023-05-10T01:49:16;17.70;;;16.70;;
11531;SDS011;5822;51.000;5.874;2023-05-10T01:51:50;17.85;;;16.85;;
11531;SDS011;5822;51.000;5.874;2023-05-10T01:54:20;17.17;;;16.27;;
11531;SDS011;5822;51.000;5.874;2023-05-10T01:56:50;17.73;;;16.73;;
11531;SDS011;5822;51.000;5.874;2023-05-10T01:59:21;17.30;;;16.40;;
11531;SDS011;5822;51.000;5.874;2023-05-10T02:01:49;17.38;;;16.38;;
11531;SDS011;5822;51.000;5.874;2023-05-10T02:04:17;17.25;;;16.35;;
11531;SDS011;5822;51.000;5.874;2023-05-10T02:06:44;16.02;;;15.23;;
11531;SDS011;5822;51.000;5.874;2023-05-10T02:09:12;16.10;;;15.30;;
11531;SDS011;5822;51.000;5.874;2023-05-10T02:11:41;15.67;;;14.87;;
11531;SDS011;5822;51.000;5.874;2023-05-10T02:14:08;16.65;;;15.75;;
11531;SDS011;5822;51.000;5.874;2023-05-10T02:16:36;17.05;;;16.15;;
11531;SDS011;5822;51.000;5.874;2023-05-10T02:19:03;16.00;;;15.10;;
11531;SDS011;5822;51.000;5.874;2023-05-10T02:21:30;15.95;;;15.15;;
11531;SDS011;5822;51.000;5.874;2023-05-10T02:23:57;16.40;;;15.50;;
11531;SDS011;5822;51.000;5.874;2023-05-10T02:26:26;16.20;;;15.30;;
11531;SDS011;5822;51.000;5.874;2023-05-10T02:28:53;15.32;;;14.52;;
11531;SDS011;5822;51.000;5.874;2023-05-10T02:31:19;16.02;;;15.13;;
11531;SDS011;5822;51.000;5.874;2023-05-10T02:33:46;15.73;;;14.88;;
11531;SDS011;5822;51.000;5.874;2023-05-10T02:36:13;15.00;;;14.20;;
11531;SDS011;5822;51.000;5.874;2023-05-10T02:38:41;15.38;;;14.57;;
11531;SDS011;5822;51.000;5.874;2023-05-10T02:41:07;16.75;;;15.75;;
11531;SDS011;5822;51.000;5.874;2023-05-10T02:43:35;15.88;;;14.98;;
11531;SDS011;5822;51.000;5.874;2023-05-10T02:46:02;16.00;;;15.10;;
11531;SDS011;5822;51.000;5.874;2023-05-10T02:48:28;15.65;;;14.73;;
11531;SDS011;5822;51.000;5.874;2023-05-10T02:50:54;15.82;;;14.93;;
11531;SDS011;5822;51.000;5.874;2023-05-10T02:53:34;14.95;;;14.15;;
11531;SDS011;5822;51.000;5.874;2023-05-10T02:56:10;15.40;;;14.60;;
11531;SDS011;5822;51.000;5.874;2023-05-10T02:58:40;15.90;;;15.00;;
11531;SDS011;5822;51.000;5.874;2023-05-10T03:01:05;15.30;;;14.50;;
11531;SDS011;5822;51.000;5.874;2023-05-10T03:03:32;15.15;;;14.35;;
11531;SDS011;5822;51.000;5.874;2023-05-10T03:05:58;15.30;;;14.40;;
11531;SDS011;5822;51.000;5.874;2023-05-10T03:08:24;15.20;;;14.40;;
11531;SDS011;5822;51.000;5.874;2023-05-10T03:11:01;15.50;;;14.60;;
11531;SDS011;5822;51.000;5.874;2023-05-10T03:17:06;15.85;;;14.95;;
11531;SDS011;5822;51.000;5.874;2023-05-10T03:22:08;17.38;;;16.38;;
11531;SDS011;5822;51.000;5.874;2023-05-10T03:24:36;17.55;;;16.55;;
11531;SDS011;5822;51.000;5.874;2023-05-10T03:27:04;18.33;;;17.23;;
11531;SDS011;5822;51.000;5.874;2023-05-10T03:29:31;16.10;;;15.20;;
11531;SDS011;5822;51.000;5.874;2023-05-10T03:31:59;15.20;;;14.40;;
11531;SDS011;5822;51.000;5.874;2023-05-10T03:34:25;15.45;;;14.60;;
11531;SDS011;5822;51.000;5.874;2023-05-10T03:36:51;16.13;;;15.20;;
11531;SDS011;5822;51.000;5.874;2023-05-10T03:39:17;15.93;;;15.02;;
11531;SDS011;5822;51.000;5.874;2023-05-10T03:41:43;17.40;;;16.30;;
11531;SDS011;5822;51.000;5.874;2023-05-10T03:44:08;17.10;;;16.10;;
11531;SDS011;5822;51.000;5.874;2023-05-10T03:46:34;16.92;;;15.93;;
11531;SDS011;5822;51.000;5.874;2023-05-10T03:49:00;16.90;;;15.90;;
11531;SDS011;5822;51.000;5.874;2023-05-10T03:51:25;17.15;;;16.15;;
11531;SDS011;5822;51.000;5.874;2023-05-10T03:53:53;18.15;;;16.95;;
11531;SDS011;5822;51.000;5.874;2023-05-10T03:56:19;17.75;;;16.75;;
11531;SDS011;5822;51.000;5.874;2023-05-10T03:58:46;17.73;;;16.73;;
11531;SDS011;5822;51.000;5.874;2023-05-10T04:01:11;17.85;;;16.85;;
11531;SDS011;5822;51.000;5.874;2023-05-10T04:03:37;18.92;;;17.75;;
11531;SDS011;5822;51.000;5.874;2023-05-10T04:06:03;18.38;;;17.23;;
11531;SDS011;5822;51.000;5.874;2023-05-10T04:08:29;18.55;;;17.40;;
11531;SDS011;5822;51.000;5.874;2023-05-10T04:11:06;17.73;;;16.67;;
11531;SDS011;5822;51.000;5.874;2023-05-10T04:13:32;17.67;;;16.57;;
11531;SDS011;5822;51.000;5.874;2023-05-10T04:15:58;17.80;;;16.70;;
11531;SDS011;5822;51.000;5.874;2023-05-10T04:18:23;17.58;;;16.58;;
11531;SDS011;5822;51.000;5.874;2023-05-10T04:20:49;18.80;;;17.65;;
11531;SDS011;5822;51.000;5.874;2023-05-10T04:23:14;18.50;;;17.40;;
11531;SDS011;5822;51.000;5.874;2023-05-10T04:25:41;18.73;;;17.52;;
11531;SDS011;5822;51.000;5.874;2023-05-10T04:28:07;19.60;;;18.40;;
11531;SDS011;5822;51.000;5.874;2023-05-10T04:30:33;20.00;;;18.70;;
11531;SDS011;5822;51.000;5.874;2023-05-10T04:32:59;19.00;;;17.80;;
11531;SDS011;5822;51.000;5.874;2023-05-10T04:35:26;18.38;;;17.27;;
11531;SDS011;5822;51.000;5.874;2023-05-10T04:37:53;18.25;;;17.17;;
11531;SDS011;5822;51.000;5.874;2023-05-10T04:40:19;18.13;;;17.02;;
11531;SDS011;5822;51.000;5.874;2023-05-10T04:42:45;18.92;;;17.83;;
11531;SDS011;5822;51.000;5.874;2023-05-10T04:45:11;17.80;;;16.80;;
11531;SDS011;5822;51.000;5.874;2023-05-10T04:47:37;18.88;;;17.67;;
11531;SDS011;5822;51.000;5.874;2023-05-10T04:50:03;19.70;;;18.50;;
11531;SDS011;5822;51.000;5.874;2023-05-10T04:52:29;20.13;;;18.83;;
11531;SDS011;5822;51.000;5.874;2023-05-10T04:54:55;21.25;;;19.85;;
11531;SDS011;5822;51.000;5.874;2023-05-10T04:57:20;20.67;;;19.37;;
11531;SDS011;5822;51.000;5.874;2023-05-10T04:59:46;20.73;;;19.43;;
11531;SDS011;5822;51.000;5.874;2023-05-10T05:02:12;22.67;;;21.17;;
11531;SDS011;5822;51.000;5.874;2023-05-10T05:04:38;21.33;;;19.93;;
11531;SDS011;5822;51.000;5.874;2023-05-10T05:07:03;22.00;;;20.60;;
11531;SDS011;5822;51.000;5.874;2023-05-10T05:09:29;20.48;;;19.20;;
11531;SDS011;5822;51.000;5.874;2023-05-10T05:11:57;22.83;;;21.33;;
11531;SDS011;5822;51.000;5.874;2023-05-10T05:14:22;19.95;;;18.75;;
11531;SDS011;5822;51.000;5.874;2023-05-10T05:16:50;21.45;;;20.05;;
11531;SDS011;5822;51.000;5.874;2023-05-10T05:19:19;19.90;;;18.70;;
11531;SDS011;5822;51.000;5.874;2023-05-10T05:21:44;19.50;;;18.35;;
11531;SDS011;5822;51.000;5.874;2023-05-10T05:24:10;18.50;;;17.40;;
11531;SDS011;5822;51.000;5.874;2023-05-10T05:26:37;18.70;;;17.60;;
11531;SDS011;5822;51.000;5.874;2023-05-10T05:29:03;19.48;;;18.27;;
11531;SDS011;5822;51.000;5.874;2023-05-10T05:31:29;18.95;;;17.75;;
11531;SDS011;5822;51.000;5.874;2023-05-10T05:33:55;18.58;;;17.48;;
11531;SDS011;5822;51.000;5.874;2023-05-10T05:36:21;18.45;;;17.35;;
11531;SDS011;5822;51.000;5.874;2023-05-10T05:38:47;17.77;;;16.77;;
11531;SDS011;5822;51.000;5.874;2023-05-10T05:41:12;17.87;;;16.87;;
11531;SDS011;5822;51.000;5.874;2023-05-10T05:43:38;18.60;;;17.50;;
11531;SDS011;5822;51.000;5.874;2023-05-10T05:46:04;20.35;;;19.05;;
11531;SDS011;5822;51.000;5.874;2023-05-10T05:48:30;19.48;;;18.27;;
11531;SDS011;5822;51.000;5.874;2023-05-10T05:50:56;19.05;;;17.85;;
11531;SDS011;5822;51.000;5.874;2023-05-10T05:53:22;18.73;;;17.60;;
11531;SDS011;5822;51.000;5.874;2023-05-10T05:55:55;20.13;;;18.83;;
11531;SDS011;5822;51.000;5.874;2023-05-10T05:58:23;19.07;;;17.97;;
11531;SDS011;5822;51.000;5.874;2023-05-10T06:00:50;18.63;;;17.52;;
11531;SDS011;5822;51.000;5.874;2023-05-10T06:03:19;17.70;;;16.70;;
11531;SDS011;5822;51.000;5.874;2023-05-10T06:05:45;18.23;;;17.23;;
11531;SDS011;5822;51.000;5.874;2023-05-10T06:08:14;18.65;;;17.65;;
11531;SDS011;5822;51.000;5.874;2023-05-10T06:10:39;17.80;;;16.80;;
11531;SDS011;5822;51.000;5.874;2023-05-10T06:13:05;18.25;;;17.25;;
11531;SDS011;5822;51.000;5.874;2023-05-10T06:15:31;17.90;;;16.90;;
11531;SDS011;5822;51.000;5.874;2023-05-10T06:17:57;17.40;;;16.40;;
11531;SDS011;5822;51.000;5.874;2023-05-10T06:20:23;17.52;;;16.58;;
11531;SDS011;5822;51.000;5.874;2023-05-10T06:22:48;17.73;;;16.73;;
11531;SDS011;5822;51.000;5.874;2023-05-10T06:25:14;17.50;;;16.60;;
11531;SDS011;5822;51.000;5.874;2023-05-10T06:27:42;16.70;;;15.80;;
11531;SDS011;5822;51.000;5.874;2023-05-10T06:30:08;17.00;;;16.10;;
11531;SDS011;5822;51.000;5.874;2023-05-10T06:32:35;16.50;;;15.60;;
11531;SDS011;5822;51.000;5.874;2023-05-10T06:35:00;15.10;;;14.30;;
11531;SDS011;5822;51.000;5.874;2023-05-10T06:37:26;15.20;;;14.40;;
11531;SDS011;5822;51.000;5.874;2023-05-10T06:39:52;15.00;;;14.20;;
11531;SDS011;5822;51.000;5.874;2023-05-10T06:42:17;15.25;;;14.45;;
11531;SDS011;5822;51.000;5.874;2023-05-10T06:44:46;14.90;;;14.10;;
11531;SDS011;5822;51.000;5.874;2023-05-10T06:47:11;15.55;;;14.75;;
11531;SDS011;5822;51.000;5.874;2023-05-10T06:49:37;15.10;;;14.30;;
11531;SDS011;5822;51.000;5.874;2023-05-10T06:52:02;14.50;;;13.80;;
11531;SDS011;5822;51.000;5.874;2023-05-10T06:54:29;14.30;;;13.60;;
11531;SDS011;5822;51.000;5.874;2023-05-10T06:56:54;14.30;;;13.60;;
11531;SDS011;5822;51.000;5.874;2023-05-10T06:59:20;15.47;;;14.67;;
11531;SDS011;5822;51.000;5.874;2023-05-10T07:01:46;17.63;;;16.63;;
11531;SDS011;5822;51.000;5.874;2023-05-10T07:04:12;18.73;;;17.63;;
11531;SDS011;5822;51.000;5.874;2023-05-10T07:06:38;22.40;;;20.90;;
11531;SDS011;5822;51.000;5.874;2023-05-10T07:09:04;20.70;;;19.40;;
11531;SDS011;5822;51.000;5.874;2023-05-10T07:11:29;20.83;;;19.52;;
11531;SDS011;5822;51.000;5.874;2023-05-10T07:13:55;21.15;;;19.85;;
11531;SDS011;5822;51.000;5.874;2023-05-10T07:16:21;20.95;;;19.65;;
11531;SDS011;5822;51.000;5.874;2023-05-10T07:18:46;20.73;;;19.43;;
11531;SDS011;5822;51.000;5.874;2023-05-10T07:21:12;21.97;;;20.53;;
11531;SDS011;5822;51.000;5.874;2023-05-10T07:23:38;23.52;;;21.92;;
11531;SDS011;5822;51.000;5.874;2023-05-10T07:26:03;27.48;;;25.48;;
11531;SDS011;5822;51.000;5.874;2023-05-10T07:28:29;26.53;;;24.73;;
11531;SDS011;5822;51.000;5.874;2023-05-10T07:30:55;24.07;;;22.47;;
11531;SDS011;5822;51.000;5.874;2023-05-10T07:33:20;22.77;;;21.27;;
11531;SDS011;5822;51.000;5.874;2023-05-10T07:35:49;26.80;;;24.80;;
11531;SDS011;5822;51.000;5.874;2023-05-10T07:38:15;27.90;;;25.80;;
11531;SDS011;5822;51.000;5.874;2023-05-10T07:40:40;24.50;;;22.70;;
11531;SDS011;5822;51.000;5.874;2023-05-10T07:43:06;27.17;;;25.17;;
11531;SDS011;5822;51.000;5.874;2023-05-10T07:45:32;24.77;;;23.07;;
11531;SDS011;5822;51.000;5.874;2023-05-10T07:47:58;26.40;;;24.45;;
11531;SDS011;5822;51.000;5.874;2023-05-10T07:50:24;26.45;;;24.45;;
11531;SDS011;5822;51.000;5.874;2023-05-10T07:52:50;28.00;;;25.80;;
11531;SDS011;5822;51.000;5.874;2023-05-10T07:55:15;24.37;;;22.67;;
11531;SDS011;5822;51.000;5.874;2023-05-10T07:57:43;24.38;;;22.67;;
11531;SDS011;5822;51.000;5.874;2023-05-10T08:00:08;25.07;;;23.30;;
11531;SDS011;5822;51.000;5.874;2023-05-10T08:02:41;24.40;;;22.70;;
11531;SDS011;5822;51.000;5.874;2023-05-10T08:05:07;23.33;;;21.73;;
11531;SDS011;5822;51.000;5.874;2023-05-10T08:07:33;23.90;;;22.30;;
11531;SDS011;5822;51.000;5.874;2023-05-10T08:09:59;22.77;;;21.17;;
11531;SDS011;5822;51.000;5.874;2023-05-10T08:12:25;23.70;;;22.00;;
11531;SDS011;5822;51.000;5.874;2023-05-10T08:14:50;24.00;;;22.30;;
11531;SDS011;5822;51.000;5.874;2023-05-10T08:17:16;22.90;;;21.30;;
11531;SDS011;5822;51.000;5.874;2023-05-10T08:19:41;22.05;;;20.55;;
11531;SDS011;5822;51.000;5.874;2023-05-10T08:22:10;23.65;;;21.95;;
11531;SDS011;5822;51.000;5.874;2023-05-10T08:24:35;24.30;;;22.50;;
11531;SDS011;5822;51.000;5.874;2023-05-10T08:27:04;22.40;;;20.80;;
11531;SDS011;5822;51.000;5.874;2023-05-10T08:29:30;24.08;;;22.38;;
11531;SDS011;5822;51.000;5.874;2023-05-10T08:31:56;20.13;;;18.83;;
11531;SDS011;5822;51.000;5.874;2023-05-10T08:34:21;21.20;;;19.80;;
11531;SDS011;5822;51.000;5.874;2023-05-10T08:36:47;22.00;;;20.50;;
11531;SDS011;5822;51.000;5.874;2023-05-10T08:39:15;22.05;;;20.55;;
11531;SDS011;5822;51.000;5.874;2023-05-10T08:41:44;23.55;;;21.85;;
11531;SDS011;5822;51.000;5.874;2023-05-10T08:44:11;21.00;;;19.65;;
11531;SDS011;5822;51.000;5.874;2023-05-10T08:46:38;20.15;;;18.85;;
11531;SDS011;5822;51.000;5.874;2023-05-10T08:49:08;20.52;;;19.13;;
11531;SDS011;5822;51.000;5.874;2023-05-10T08:51:43;24.33;;;22.63;;
11531;SDS011;5822;51.000;5.874;2023-05-10T08:54:14;23.13;;;21.63;;
11531;SDS011;5822;51.000;5.874;2023-05-10T08:56:43;23.98;;;22.35;;
11531;SDS011;5822;51.000;5.874;2023-05-10T08:59:09;24.35;;;22.65;;
11531;SDS011;5822;51.000;5.874;2023-05-10T09:01:36;23.05;;;21.55;;
11531;SDS011;5822;51.000;5.874;2023-05-10T09:04:05;23.30;;;21.73;;
11531;SDS011;5822;51.000;5.874;2023-05-10T09:06:30;23.92;;;22.23;;
11531;SDS011;5822;51.000;5.874;2023-05-10T09:08:57;23.75;;;22.15;;
11531;SDS011;5822;51.000;5.874;2023-05-10T09:11:23;21.25;;;19.92;;
11531;SDS011;5822;51.000;5.874;2023-05-10T09:13:49;21.63;;;20.23;;
11531;SDS011;5822;51.000;5.874;2023-05-10T09:16:17;19.08;;;17.98;;
11531;SDS011;5822;51.000;5.874;2023-05-10T09:18:42;19.40;;;18.20;;
11531;SDS011;5822;51.000;5.874;2023-05-10T09:21:08;20.93;;;19.53;;
11531;SDS011;5822;51.000;5.874;2023-05-10T09:23:35;19.08;;;17.98;;
11531;SDS011;5822;51.000;5.874;2023-05-10T09:26:07;20.10;;;18.90;;
11531;SDS011;5822;51.000;5.874;2023-05-10T09:31:18;19.85;;;18.65;;
11531;SDS011;5822;51.000;5.874;2023-05-10T09:33:45;19.20;;;18.10;;
11531;SDS011;5822;51.000;5.874;2023-05-10T09:36:12;19.25;;;18.05;;
11531;SDS011;5822;51.000;5.874;2023-05-10T09:38:51;19.20;;;18.10;;
11531;SDS011;5822;51.000;5.874;2023-05-10T09:41:23;18.20;;;17.20;;
11531;SDS011;5822;51.000;5.874;2023-05-10T09:43:50;19.08;;;17.98;;
11531;SDS011;5822;51.000;5.874;2023-05-10T09:46:20;19.00;;;17.90;;
11531;SDS011;5822;51.000;5.874;2023-05-10T09:48:46;18.52;;;17.52;;
11531;SDS011;5822;51.000;5.874;2023-05-10T09:51:20;24.77;;;23.17;;
11531;SDS011;5822;51.000;5.874;2023-05-10T09:56:38;17.92;;;16.88;;
11531;SDS011;5822;51.000;5.874;2023-05-10T09:59:05;17.40;;;16.40;;
11531;SDS011;5822;51.000;5.874;2023-05-10T10:01:33;16.47;;;15.57;;
11531;SDS011;5822;51.000;5.874;2023-05-10T10:04:02;17.13;;;16.23;;
11531;SDS011;5822;51.000;5.874;2023-05-10T10:06:29;17.20;;;16.25;;
11531;SDS011;5822;51.000;5.874;2023-05-10T10:09:00;16.50;;;15.60;;
11531;SDS011;5822;51.000;5.874;2023-05-10T10:11:25;16.53;;;15.63;;
11531;SDS011;5822;51.000;5.874;2023-05-10T10:13:51;16.53;;;15.63;;
11531;SDS011;5822;51.000;5.874;2023-05-10T10:16:16;17.05;;;16.15;;
11531;SDS011;5822;51.000;5.874;2023-05-10T10:18:42;17.20;;;16.23;;
11531;SDS011;5822;51.000;5.874;2023-05-10T10:21:08;17.60;;;16.60;;
11531;SDS011;5822;51.000;5.874;2023-05-10T10:23:34;16.95;;;16.05;;
11531;SDS011;5822;51.000;5.874;2023-05-10T10:26:01;17.80;;;16.80;;
11531;SDS011;5822;51.000;5.874;2023-05-10T10:31:41;17.77;;;16.77;;
11531;SDS011;5822;51.000;5.874;2023-05-10T10:34:33;17.85;;;16.80;;
11531;SDS011;5822;51.000;5.874;2023-05-10T10:36:59;18.42;;;17.33;;
11531;SDS011;5822;51.000;5.874;2023-05-10T10:39:30;17.98;;;16.98;;
11531;SDS011;5822;51.000;5.874;2023-05-10T10:41:56;18.90;;;17.80;;
11531;SDS011;5822;51.000;5.874;2023-05-10T10:52:13;47.42;;;33.38;;
11531;SDS011;5822;51.000;5.874;2023-05-10T10:54:52;19.88;;;18.58;;
11531;SDS011;5822;51.000;5.874;2023-05-10T10:57:25;20.40;;;19.10;;
11531;SDS011;5822;51.000;5.874;2023-05-10T11:02:46;18.20;;;17.20;;
11531;SDS011;5822;51.000;5.874;2023-05-10T11:07:54;18.70;;;17.60;;
11531;SDS011;5822;51.000;5.874;2023-05-10T11:10:22;18.40;;;17.33;;
11531;SDS011;5822;51.000;5.874;2023-05-10T11:13:00;18.27;;;17.17;;
11531;SDS011;5822;51.000;5.874;2023-05-10T11:17:57;18.25;;;17.15;;
11531;SDS011;5822;51.000;5.874;2023-05-10T11:20:23;17.63;;;16.63;;
11531;SDS011;5822;51.000;5.874;2023-05-10T11:22:57;17.65;;;16.60;;
11531;SDS011;5822;51.000;5.874;2023-05-10T11:25:35;18.50;;;17.40;;
11531;SDS011;5822;51.000;5.874;2023-05-10T11:28:10;17.40;;;16.40;;
11531;SDS011;5822;51.000;5.874;2023-05-10T11:30:39;18.17;;;17.08;;
11531;SDS011;5822;51.000;5.874;2023-05-10T11:33:06;18.35;;;17.35;;
11531;SDS011;5822;51.000;5.874;2023-05-10T11:35:41;17.95;;;16.95;;
11531;SDS011;5822;51.000;5.874;2023-05-10T11:38:10;18.80;;;17.60;;
11531;SDS011;5822;51.000;5.874;2023-05-10T11:40:37;18.33;;;17.27;;
11531;SDS011;5822;51.000;5.874;2023-05-10T11:43:03;17.45;;;16.55;;
11531;SDS011;5822;51.000;5.874;2023-05-10T11:45:34;17.00;;;16.10;;
11531;SDS011;5822;51.000;5.874;2023-05-10T11:48:00;16.98;;;16.08;;
11531;SDS011;5822;51.000;5.874;2023-05-10T11:50:26;16.77;;;15.88;;
11531;SDS011;5822;51.000;5.874;2023-05-10T11:52:56;16.43;;;15.53;;
11531;SDS011;5822;51.000;5.874;2023-05-10T11:55:22;16.60;;;15.70;;
11531;SDS011;5822;51.000;5.874;2023-05-10T11:57:52;17.60;;;16.60;;
11531;SDS011;5822;51.000;5.874;2023-05-10T12:00:19;17.40;;;16.50;;
11531;SDS011;5822;51.000;5.874;2023-05-10T12:02:45;17.65;;;16.65;;
11531;SDS011;5822;51.000;5.874;2023-05-10T12:05:11;16.98;;;16.08;;
11531;SDS011;5822;51.000;5.874;2023-05-10T12:07:37;17.50;;;16.50;;
11531;SDS011;5822;51.000;5.874;2023-05-10T12:12:40;16.05;;;15.15;;
11531;SDS011;5822;51.000;5.874;2023-05-10T12:15:11;17.60;;;16.60;;
11531;SDS011;5822;51.000;5.874;2023-05-10T12:17:44;18.77;;;17.77;;
11531;SDS011;5822;51.000;5.874;2023-05-10T12:20:15;18.73;;;17.73;;
11531;SDS011;5822;51.000;5.874;2023-05-10T12:22:55;17.50;;;16.50;;
11531;SDS011;5822;51.000;5.874;2023-05-10T12:25:23;18.48;;;17.48;;
11531;SDS011;5822;51.000;5.874;2023-05-10T12:27:55;18.88;;;17.88;;
11531;SDS011;5822;51.000;5.874;2023-05-10T12:30:23;18.88;;;17.77;;
11531;SDS011;5822;51.000;5.874;2023-05-10T12:32:53;18.20;;;17.20;;
11531;SDS011;5822;51.000;5.874;2023-05-10T12:35:24;18.40;;;17.35;;
11531;SDS011;5822;51.000;5.874;2023-05-10T12:37:52;20.13;;;19.03;;
11531;SDS011;5822;51.000;5.874;2023-05-10T12:40:18;18.67;;;17.67;;
11531;SDS011;5822;51.000;5.874;2023-05-10T12:42:44;19.67;;;18.58;;
11531;SDS011;5822;51.000;5.874;2023-05-10T12:45:10;18.77;;;17.77;;
11531;SDS011;5822;51.000;5.874;2023-05-10T12:47:35;18.70;;;17.60;;
11531;SDS011;5822;51.000;5.874;2023-05-10T12:50:02;18.95;;;17.85;;
11531;SDS011;5822;51.000;5.874;2023-05-10T12:52:28;17.58;;;16.65;;
11531;SDS011;5822;51.000;5.874;2023-05-10T12:54:54;18.00;;;17.00;;
11531;SDS011;5822;51.000;5.874;2023-05-10T12:57:20;18.00;;;17.00;;
11531;SDS011;5822;51.000;5.874;2023-05-10T12:59:46;18.17;;;17.17;;
11531;SDS011;5822;51.000;5.874;2023-05-10T13:02:12;17.50;;;16.60;;
11531;SDS011;5822;51.000;5.874;2023-05-10T13:04:39;17.92;;;16.92;;
11531;SDS011;5822;51.000;5.874;2023-05-10T13:07:06;17.77;;;16.77;;
11531;SDS011;5822;51.000;5.874;2023-05-10T13:09:31;16.73;;;15.82;;
11531;SDS011;5822;51.000;5.874;2023-05-10T13:11:57;16.77;;;15.88;;
11531;SDS011;5822;51.000;5.874;2023-05-10T13:14:23;16.97;;;16.07;;
11531;SDS011;5822;51.000;5.874;2023-05-10T13:16:49;16.90;;;16.00;;
11531;SDS011;5822;51.000;5.874;2023-05-10T13:19:15;16.35;;;15.55;;
11531;SDS011;5822;51.000;5.874;2023-05-10T13:21:41;16.90;;;16.00;;
11531;SDS011;5822;51.000;5.874;2023-05-10T13:24:07;16.85;;;15.95;;
11531;SDS011;5822;51.000;5.874;2023-05-10T13:26:33;16.60;;;15.70;;
11531;SDS011;5822;51.000;5.874;2023-05-10T13:28:59;16.57;;;15.67;;
11531;SDS011;5822;51.000;5.874;2023-05-10T13:31:25;16.83;;;15.93;;
11531;SDS011;5822;51.000;5.874;2023-05-10T13:33:50;17.52;;;16.58;;
11531;SDS011;5822;51.000;5.874;2023-05-10T13:36:16;17.50;;;16.52;;
11531;SDS011;5822;51.000;5.874;2023-05-10T13:38:42;17.38;;;16.40;;
11531;SDS011;5822;51.000;5.874;2023-05-10T13:41:07;16.73;;;15.83;;
11531;SDS011;5822;51.000;5.874;2023-05-10T13:43:33;16.27;;;15.37;;
11531;SDS011;5822;51.000;5.874;2023-05-10T13:45:59;16.10;;;15.30;;
11531;SDS011;5822;51.000;5.874;2023-05-10T13:48:24;16.03;;;15.17;;
11531;SDS011;5822;51.000;5.874;2023-05-10T13:50:50;16.65;;;15.75;;
11531;SDS011;5822;51.000;5.874;2023-05-10T13:53:18;16.35;;;15.50;;
11531;SDS011;5822;51.000;5.874;2023-05-10T13:55:44;16.47;;;15.67;;
11531;SDS011;5822;51.000;5.874;2023-05-10T13:58:10;16.50;;;15.60;;
11531;SDS011;5822;51.000;5.874;2023-05-10T14:00:35;16.58;;;15.68;;
11531;SDS011;5822;51.000;5.874;2023-05-10T14:03:01;16.87;;;15.97;;
11531;SDS011;5822;51.000;5.874;2023-05-10T14:05:27;16.20;;;15.40;;
11531;SDS011;5822;51.000;5.874;2023-05-10T14:07:52;16.10;;;15.30;;
11531;SDS011;5822;51.000;5.874;2023-05-10T14:10:18;16.70;;;15.80;;
11531;SDS011;5822;51.000;5.874;2023-05-10T14:12:44;16.65;;;15.82;;
11531;SDS011;5822;51.000;5.874;2023-05-10T14:15:10;16.48;;;15.68;;
11531;SDS011;5822;51.000;5.874;2023-05-10T14:17:36;16.77;;;15.88;;
11531;SDS011;5822;51.000;5.874;2023-05-10T14:20:02;16.87;;;15.97;;
11531;SDS011;5822;51.000;5.874;2023-05-10T14:22:28;16.30;;;15.50;;
11531;SDS011;5822;51.000;5.874;2023-05-10T14:24:54;16.42;;;15.52;;
11531;SDS011;5822;51.000;5.874;2023-05-10T14:27:20;16.73;;;15.82;;
11531;SDS011;5822;51.000;5.874;2023-05-10T14:29:46;17.03;;;16.13;;
11531;SDS011;5822;51.000;5.874;2023-05-10T14:32:12;16.15;;;15.35;;
11531;SDS011;5822;51.000;5.874;2023-05-10T14:34:38;16.67;;;15.77;;
11531;SDS011;5822;51.000;5.874;2023-05-10T14:37:04;16.10;;;15.30;;
11531;SDS011;5822;51.000;5.874;2023-05-10T14:39:29;15.17;;;14.37;;
11531;SDS011;5822;51.000;5.874;2023-05-10T14:41:55;14.80;;;14.10;;
11531;SDS011;5822;51.000;5.874;2023-05-10T14:44:21;14.50;;;13.80;;
11531;SDS011;5822;51.000;5.874;2023-05-10T14:46:47;14.77;;;14.00;;
11531;SDS011;5822;51.000;5.874;2023-05-10T14:49:13;14.90;;;14.10;;
11531;SDS011;5822;51.000;5.874;2023-05-10T14:51:39;14.63;;;13.90;;
11531;SDS011;5822;51.000;5.874;2023-05-10T14:54:05;14.90;;;14.10;;
11531;SDS011;5822;51.000;5.874;2023-05-10T14:56:31;14.82;;;14.02;;
11531;SDS011;5822;51.000;5.874;2023-05-10T14:58:56;14.95;;;14.15;;
11531;SDS011;5822;51.000;5.874;2023-05-10T15:01:22;15.40;;;14.60;;
11531;SDS011;5822;51.000;5.874;2023-05-10T15:03:48;15.00;;;14.20;;
11531;SDS011;5822;51.000;5.874;2023-05-10T15:06:14;15.18;;;14.38;;
11531;SDS011;5822;51.000;5.874;2023-05-10T15:08:43;15.30;;;14.50;;
11531;SDS011;5822;51.000;5.874;2023-05-10T15:11:08;15.27;;;14.48;;
11531;SDS011;5822;51.000;5.874;2023-05-10T15:13:34;15.00;;;14.20;;
11531;SDS011;5822;51.000;5.874;2023-05-10T15:16:00;14.27;;;13.57;;
11531;SDS011;5822;51.000;5.874;2023-05-10T15:18:26;14.10;;;13.40;;
11531;SDS011;5822;51.000;5.874;2023-05-10T15:20:51;14.23;;;13.53;;
11531;SDS011;5822;51.000;5.874;2023-05-10T15:23:17;14.02;;;13.32;;
11531;SDS011;5822;51.000;5.874;2023-05-10T15:25:43;14.03;;;13.33;;
11531;SDS011;5822;51.000;5.874;2023-05-10T15:28:08;14.27;;;13.57;;
11531;SDS011;5822;51.000;5.874;2023-05-10T15:30:34;14.82;;;14.02;;